Port Alice, Canada
Current Conditions -  °F | °C
As of 8:00 AM on Monday 24 Nov 2014 (Local Time) from CYZT Reporting Station
Light Rain Light Rain  
Wind Chill: 36°   Ceiling: 3300
Heat Index: 45°   Visibility: 8mi
Dew Point: 43°   Wind: 21mph
Humidity: 93%   Direction: 110°ESE
Pressure: 30.03"   Gusts: 29mph
Location:  50.38°N, 127.43°W
Report Text: CYZT 241600Z 11018G25KT 8SM -RA BKN033 OVC050 07/06 A3003 RMK SC6SC2 SLP168
Loading
Personal Weather Stations






























Interactive Weather Map New forecast layout! Learn more

10-Day Weather Forecast

Advertisements
Track Severe Weather on mobile